Time;durP1;ratioP1;P1;durP2;ratioP2;P2;SDS_P1;SDS_P2;PMS_P1;PMS_P2;Temp;Humidity;BMP_temperature;BMP_pressure;BME280_temperature;BME280_humidity;BME280_pressure;Samples;Min_cycle;Max_cycle;Signal;HPM_P1;HPM_P2
2022/09/07 00:00:27;;;;;;;10.70;5.43;;;18.50;99.90;;;;;;5050455;28;20525;-64
2022/09/07 00:02:54;;;;;;;6.57;4.47;;;18.50;99.90;;;;;;5050053;28;20841;-64
2022/09/07 00:05:20;;;;;;;5.77;5.13;;;18.50;99.90;;;;;;5050123;28;20975;-64
2022/09/07 00:07:47;;;;;;;6.00;5.50;;;18.50;99.90;;;;;;5050161;28;20538;-64
2022/09/07 00:10:16;;;;;;;6.87;5.00;;;18.40;99.90;;;;;;5050269;28;20455;-64
2022/09/07 00:12:43;;;;;;;4.57;4.17;;;18.40;99.90;;;;;;5049827;28;20476;-64
2022/09/07 00:15:11;;;;;;;7.10;6.10;;;18.40;99.90;;;;;;5050029;28;20938;-64
2022/09/07 00:17:39;;;;;;;4.70;4.30;;;18.40;99.90;;;;;;5050025;28;20452;-64
2022/09/07 00:20:08;;;;;;;7.00;5.50;;;18.30;99.90;;;;;;5049588;28;20447;-64
2022/09/07 00:22:35;;;;;;;7.13;5.47;;;18.20;99.90;;;;;;5049707;28;20444;-64
2022/09/07 00:25:03;;;;;;;6.00;5.10;;;18.20;99.90;;;;;;5049964;28;20455;-64
2022/09/07 00:27:32;;;;;;;6.10;5.50;;;18.20;99.90;;;;;;5050110;28;20814;-64
2022/09/07 00:29:59;;;;;;;6.27;4.23;;;18.20;99.90;;;;;;5049823;28;20448;-64
2022/09/07 00:32:25;;;;;;;7.07;4.90;;;18.20;99.90;;;;;;5049335;28;20578;-64
2022/09/07 00:34:52;;;;;;;3.97;3.57;;;18.20;99.90;;;;;;5049791;28;20447;-64
2022/09/07 00:37:19;;;;;;;4.77;3.73;;;18.30;99.90;;;;;;5049845;28;20459;-64
2022/09/07 00:39:46;;;;;;;5.83;3.77;;;18.30;99.90;;;;;;5049765;28;20910;-64
2022/09/07 00:42:14;;;;;;;4.80;3.67;;;18.40;99.90;;;;;;5049950;28;20460;-64
2022/09/07 00:45:08;;;;;;;4.40;3.83;;;18.40;99.90;;;;;;5049712;28;20448;-64
2022/09/07 00:47:40;;;;;;;5.67;4.00;;;18.60;99.90;;;;;;5047281;28;20517;-64
2022/09/07 00:50:12;;;;;;;10.23;3.83;;;18.70;99.90;;;;;;5049937;28;20444;-64
2022/09/07 00:52:40;;;;;;;4.87;4.00;;;18.80;99.90;;;;;;5049643;28;20479;-64
2022/09/07 00:55:11;;;;;;;6.03;4.07;;;18.70;99.90;;;;;;5049758;28;20857;-64
2022/09/07 00:57:42;;;;;;;3.60;2.87;;;18.70;99.90;;;;;;5050027;28;20450;-64
2022/09/07 01:00:11;;;;;;;5.67;3.50;;;18.60;99.90;;;;;;5049815;28;20823;-64
2022/09/07 01:02:38;;;;;;;4.47;3.70;;;18.60;99.90;;;;;;5049289;28;20452;-64
2022/09/07 01:05:14;;;;;;;5.40;3.33;;;18.50;99.90;;;;;;5049504;28;20452;-64
2022/09/07 01:07:41;;;;;;;3.30;3.00;;;18.40;99.90;;;;;;5049390;28;20955;-64
2022/09/07 01:10:09;;;;;;;4.20;3.73;;;18.30;99.90;;;;;;5049550;28;20450;-64
2022/09/07 01:12:36;;;;;;;4.63;3.00;;;18.20;99.90;;;;;;5049169;28;20486;-64
2022/09/07 01:15:03;;;;;;;3.40;2.90;;;18.10;99.90;;;;;;5049509;28;20443;-64
2022/09/07 01:17:47;;;;;;;3.50;3.20;;;18.10;99.90;;;;;;5049387;28;20452;-65
2022/09/07 01:20:51;;;;;;;4.50;3.40;;;18.10;99.90;;;;;;5049187;28;20451;-64
2022/09/07 01:24:03;;;;;;;4.23;3.27;;;18.10;99.90;;;;;;5013010;28;20448;-64
2022/09/07 01:26:56;;;;;;;4.20;2.90;;;18.10;99.90;;;;;;5049737;28;20436;-64
2022/09/07 01:29:30;;;;;;;4.03;3.07;;;18.20;99.90;;;;;;5049571;28;20440;-64
2022/09/07 01:32:05;;;;;;;4.13;3.73;;;18.20;99.90;;;;;;5051525;28;20484;-64
2022/09/07 01:34:32;;;;;;;5.10;3.70;;;18.30;99.90;;;;;;5053202;28;20455;-64
2022/09/07 01:37:05;;;;;;;3.60;3.30;;;18.30;99.90;;;;;;5053385;28;20462;-64
2022/09/07 01:39:46;;;;;;;3.50;3.20;;;18.30;99.90;;;;;;5053022;28;20466;-64
2022/09/07 01:42:15;;;;;;;4.00;3.10;;;18.30;99.90;;;;;;5052827;28;20806;-64
2022/09/07 01:44:50;;;;;;;5.80;4.53;;;18.40;99.90;;;;;;5053001;28;20469;-64
2022/09/07 01:47:22;;;;;;;4.90;3.67;;;18.40;99.90;;;;;;5052752;28;20500;-64
2022/09/07 01:49:54;;;;;;;4.67;3.20;;;18.50;99.90;;;;;;5053066;28;20448;-64
2022/09/07 01:52:27;;;;;;;4.53;3.63;;;18.50;99.90;;;;;;5052471;28;20840;-64
2022/09/07 01:54:59;;;;;;;4.70;3.67;;;18.60;99.90;;;;;;5052644;28;20538;-64
2022/09/07 01:57:32;;;;;;;3.50;3.20;;;18.50;99.90;;;;;;5052699;28;20444;-64
2022/09/07 02:00:07;;;;;;;3.77;3.47;;;18.60;99.90;;;;;;5053169;28;20428;-64
2022/09/07 02:02:39;;;;;;;5.27;3.60;;;18.60;99.90;;;;;;5052410;28;20443;-64
2022/09/07 02:05:09;;;;;;;4.57;4.13;;;18.60;99.90;;;;;;5052599;28;20451;-64
2022/09/07 02:07:42;;;;;;;3.80;3.50;;;18.50;99.90;;;;;;5052632;28;20459;-64
2022/09/07 02:10:14;;;;;;;6.83;3.80;;;18.60;99.90;;;;;;5052485;28;20455;-64
2022/09/07 02:12:47;;;;;;;4.97;3.60;;;18.60;99.90;;;;;;5052345;28;20502;-64
2022/09/07 02:15:20;;;;;;;6.87;3.53;;;18.70;99.90;;;;;;5052629;28;20805;-64
2022/09/07 02:17:50;;;;;;;4.57;3.67;;;18.70;99.90;;;;;;5052284;28;20950;-64
2022/09/07 02:20:21;;;;;;;4.47;4.00;;;18.70;99.90;;;;;;5052109;28;20466;-64
2022/09/07 02:22:51;;;;;;;4.83;4.17;;;18.60;99.90;;;;;;5051915;28;20448;-64
2022/09/07 02:25:22;;;;;;;6.37;4.63;;;18.60;99.90;;;;;;5052180;28;20467;-64
2022/09/07 02:27:53;;;;;;;5.23;4.80;;;18.60;99.90;;;;;;5052348;28;20466;-64
2022/09/07 02:30:21;;;;;;;6.43;5.30;;;18.50;99.90;;;;;;5052206;28;20506;-65
2022/09/07 02:32:48;;;;;;;5.97;5.40;;;18.40;99.90;;;;;;5051680;28;20475;-64
2022/09/07 02:35:15;;;;;;;7.00;5.17;;;18.40;99.90;;;;;;5051929;28;20869;-64
2022/09/07 02:37:45;;;;;;;5.67;5.10;;;18.40;99.90;;;;;;5052267;28;20826;-64
2022/09/07 02:40:13;;;;;;;5.63;5.13;;;18.40;99.90;;;;;;5052146;28;20451;-64
2022/09/07 02:42:41;;;;;;;5.63;4.97;;;18.40;99.90;;;;;;5051293;28;20825;-64
2022/09/07 02:45:11;;;;;;;6.43;5.67;;;18.40;99.90;;;;;;5052126;28;20444;-64
2022/09/07 02:47:54;;;;;;;6.13;5.40;;;18.40;99.90;;;;;;5051904;28;20454;-64
2022/09/07 02:50:34;;;;;;;13.40;5.03;;;18.40;99.90;;;;;;5051641;28;20816;-64
2022/09/07 02:53:14;;;;;;;8.30;6.50;;;18.40;99.90;;;;;;5051637;28;20482;-64
2022/09/07 02:55:49;;;;;;;6.23;4.93;;;18.30;99.90;;;;;;5051829;28;20458;-64
2022/09/07 02:58:32;;;;;;;5.17;4.73;;;18.30;99.90;;;;;;5051497;28;20439;-64
2022/09/07 03:01:06;;;;;;;9.40;4.67;;;18.30;99.90;;;;;;5051628;28;20662;-64
2022/09/07 03:03:45;;;;;;;6.40;4.30;;;18.20;99.90;;;;;;5051163;28;20446;-64
2022/09/07 03:06:22;;;;;;;5.20;4.10;;;18.30;99.90;;;;;;5051466;28;20474;-64
2022/09/07 03:08:52;;;;;;;8.47;4.97;;;18.20;99.90;;;;;;5051626;28;20507;-64
2022/09/07 03:11:19;;;;;;;8.37;4.50;;;18.20;99.90;;;;;;5051250;28;20468;-64
2022/09/07 03:13:46;;;;;;;6.13;4.50;;;18.20;99.90;;;;;;5051108;28;20581;-64
2022/09/07 03:16:13;;;;;;;5.93;5.13;;;18.20;99.90;;;;;;5051244;28;20571;-64
2022/09/07 03:18:42;;;;;;;5.53;4.57;;;18.20;99.90;;;;;;5051315;28;20459;-64
2022/09/07 03:21:09;;;;;;;6.03;4.70;;;18.20;99.90;;;;;;5051438;28;20478;-64
2022/09/07 03:23:36;;;;;;;5.57;4.70;;;18.20;99.90;;;;;;5050853;28;20444;-64
2022/09/07 03:26:03;;;;;;;7.33;5.80;;;18.20;99.90;;;;;;5050968;28;20456;-65
2022/09/07 03:28:30;;;;;;;12.20;4.17;;;18.10;99.90;;;;;;5051084;28;20440;-64
2022/09/07 03:30:57;;;;;;;4.70;4.30;;;18.10;99.90;;;;;;5050919;28;20466;-64
2022/09/07 03:33:24;;;;;;;5.80;4.47;;;18.00;99.90;;;;;;5050357;28;20492;-64
2022/09/07 03:36:00;;;;;;;5.10;4.70;;;17.90;99.90;;;;;;5051045;28;20454;-64
2022/09/07 03:38:27;;;;;;;5.70;4.40;;;17.90;99.90;;;;;;5050968;28;20443;-64
2022/09/07 03:41:01;;;;;;;7.47;4.43;;;17.80;99.90;;;;;;5050836;28;20468;-64
2022/09/07 03:43:28;;;;;;;3.63;3.33;;;17.70;99.90;;;;;;5050346;28;21013;-64
2022/09/07 03:45:59;;;;;;;6.53;4.77;;;17.70;99.90;;;;;;5051068;28;20789;-64
2022/09/07 03:48:25;;;;;;;4.83;4.30;;;17.60;99.90;;;;;;5050715;28;20448;-64
2022/09/07 03:50:59;;;;;;;4.70;4.17;;;17.60;99.90;;;;;;5050610;28;20977;-64
2022/09/07 03:53:26;;;;;;;5.00;4.60;;;17.50;99.90;;;;;;5050255;28;21004;-64
2022/09/07 03:55:57;;;;;;;6.30;4.90;;;17.50;99.90;;;;;;5049646;28;20466;-64
2022/09/07 03:58:24;;;;;;;6.53;4.70;;;17.50;99.90;;;;;;5050286;28;20447;-64
2022/09/07 04:00:50;;;;;;;5.07;4.57;;;17.50;99.90;;;;;;5050065;28;20507;-64
2022/09/07 04:03:17;;;;;;;5.37;3.90;;;17.50;99.90;;;;;;5050176;28;20448;-64
2022/09/07 04:05:44;;;;;;;5.60;4.97;;;17.50;99.90;;;;;;5050227;28;20953;-64
2022/09/07 04:08:12;;;;;;;4.60;4.20;;;17.60;99.90;;;;;;5050335;28;20451;-64
2022/09/07 04:10:40;;;;;;;5.23;4.50;;;17.60;99.90;;;;;;5050150;28;20472;-64
2022/09/07 04:13:07;;;;;;;5.63;5.03;;;17.50;99.90;;;;;;5049679;28;20483;-64
2022/09/07 04:15:35;;;;;;;5.63;4.40;;;17.30;99.90;;;;;;5050205;28;20452;-64
2022/09/07 04:18:02;;;;;;;6.00;4.80;;;17.30;99.90;;;;;;5050032;28;20440;-64
2022/09/07 04:20:30;;;;;;;5.97;4.37;;;17.30;99.90;;;;;;5050212;28;20475;-64
2022/09/07 04:22:57;;;;;;;5.70;4.30;;;17.40;99.90;;;;;;5049028;28;20517;-64
2022/09/07 04:25:25;;;;;;;7.10;5.23;;;17.40;99.90;;;;;;5049634;28;20486;-64
2022/09/07 04:27:52;;;;;;;5.70;5.10;;;17.40;99.90;;;;;;5049868;28;20448;-64
2022/09/07 04:30:19;;;;;;;5.63;4.47;;;17.30;99.90;;;;;;5049796;28;20471;-64
2022/09/07 04:32:47;;;;;;;10.23;6.10;;;17.30;99.90;;;;;;5049644;28;20480;-64
2022/09/07 04:35:14;;;;;;;6.43;4.67;;;17.20;99.90;;;;;;5050117;28;20447;-64
2022/09/07 04:37:41;;;;;;;6.03;4.70;;;17.20;99.90;;;;;;5050330;28;20444;-64
2022/09/07 04:40:09;;;;;;;7.70;6.27;;;17.10;99.90;;;;;;5050103;28;20444;-64
2022/09/07 04:42:37;;;;;;;5.50;4.20;;;17.10;99.90;;;;;;5049647;28;20454;-64
2022/09/07 04:45:05;;;;;;;6.50;4.60;;;17.00;99.90;;;;;;5049747;28;20955;-64
2022/09/07 04:47:32;;;;;;;8.43;6.10;;;17.00;99.90;;;;;;5049710;28;20447;-64
2022/09/07 04:49:59;;;;;;;7.30;5.63;;;17.00;99.90;;;;;;5049980;28;20650;-64
2022/09/07 04:52:25;;;;;;;5.33;4.10;;;17.00;99.90;;;;;;5049501;28;20562;-64
2022/09/07 04:54:52;;;;;;;5.67;5.10;;;16.90;99.90;;;;;;5049604;28;20534;-64
2022/09/07 04:57:23;;;;;;;8.50;5.00;;;16.90;99.90;;;;;;5049667;28;20527;-64
2022/09/07 04:59:51;;;;;;;7.10;5.73;;;16.80;99.90;;;;;;5049810;28;20452;-64
2022/09/07 05:02:18;;;;;;;6.03;5.43;;;16.80;99.90;;;;;;5048942;28;20482;-64
2022/09/07 05:04:44;;;;;;;6.33;5.63;;;16.90;99.90;;;;;;5049528;28;20448;-64
2022/09/07 05:07:11;;;;;;;5.50;5.00;;;16.90;99.90;;;;;;5052674;28;20540;-64
2022/09/07 05:09:38;;;;;;;6.70;6.10;;;16.80;99.90;;;;;;5053610;28;20447;-64
2022/09/07 05:12:05;;;;;;;7.63;6.90;;;16.70;99.90;;;;;;5053152;28;20554;-64
2022/09/07 05:14:32;;;;;;;7.37;6.60;;;16.70;99.90;;;;;;5053511;28;20446;-64
2022/09/07 05:17:01;;;;;;;5.87;5.27;;;16.70;99.90;;;;;;5053396;28;20831;-64
2022/09/07 05:19:28;;;;;;;9.80;6.10;;;16.70;99.90;;;;;;5053505;28;20494;-64
2022/09/07 05:21:57;;;;;;;7.30;6.43;;;16.70;99.90;;;;;;5053059;28;20467;-64
2022/09/07 05:24:25;;;;;;;6.27;5.77;;;16.70;99.90;;;;;;5053218;28;20820;-64
2022/09/07 05:26:52;;;;;;;5.87;5.20;;;16.70;99.90;;;;;;5053273;28;20448;-64
2022/09/07 05:29:20;;;;;;;6.80;6.10;;;16.70;99.90;;;;;;5053136;28;20451;-64
2022/09/07 05:31:47;;;;;;;6.97;5.97;;;16.70;99.90;;;;;;5052806;28;20470;-64
2022/09/07 05:34:16;;;;;;;6.13;5.47;;;16.80;99.90;;;;;;5053097;28;21040;-64
2022/09/07 05:36:43;;;;;;;7.10;6.40;;;16.90;99.90;;;;;;5053337;28;20459;-64
2022/09/07 05:39:10;;;;;;;7.07;6.47;;;16.90;99.90;;;;;;5053253;28;20476;-65
2022/09/07 05:41:37;;;;;;;10.00;6.80;;;16.90;99.90;;;;;;5052977;28;20467;-64
2022/09/07 05:44:04;;;;;;;6.83;6.10;;;16.90;99.90;;;;;;5052638;28;20448;-65
2022/09/07 05:46:31;;;;;;;7.47;6.40;;;17.00;99.90;;;;;;5052916;28;20439;-65
2022/09/07 05:48:59;;;;;;;7.00;6.27;;;17.10;99.90;;;;;;5053039;28;20458;-64
2022/09/07 05:51:27;;;;;;;8.23;6.80;;;17.10;99.90;;;;;;5052845;28;20460;-65
2022/09/07 05:53:54;;;;;;;7.73;6.90;;;17.10;99.90;;;;;;5052612;28;20574;-65
2022/09/07 05:56:21;;;;;;;7.87;6.13;;;17.20;99.90;;;;;;5052610;28;20816;-65
2022/09/07 05:58:49;;;;;;;7.80;6.23;;;17.20;99.90;;;;;;5052916;28;20535;-64
2022/09/07 06:01:16;;;;;;;7.47;5.80;;;17.30;99.90;;;;;;5052476;28;21000;-65
2022/09/07 06:03:44;;;;;;;8.47;5.63;;;17.40;99.90;;;;;;5052559;28;20451;-65
2022/09/07 06:06:12;;;;;;;10.33;6.57;;;17.50;99.90;;;;;;5052719;28;20458;-65
2022/09/07 06:08:45;;;;;;;8.70;6.90;;;17.60;99.90;;;;;;5052524;28;20816;-64
2022/09/07 06:11:14;;;;;;;7.30;6.20;;;17.70;99.90;;;;;;5052452;28;20467;-65
2022/09/07 06:13:41;;;;;;;7.20;6.27;;;17.80;99.90;;;;;;5052094;28;20484;-65
2022/09/07 06:16:10;;;;;;;8.33;6.40;;;18.00;99.90;;;;;;5052302;28;20458;-65
2022/09/07 06:18:38;;;;;;;9.10;6.63;;;18.10;99.90;;;;;;5051534;28;20988;-65
2022/09/07 06:21:08;;;;;;;6.47;5.90;;;18.30;99.90;;;;;;5052341;28;20464;-65
2022/09/07 06:23:36;;;;;;;8.93;6.67;;;18.40;99.90;;;;;;5052008;28;20448;-65
2022/09/07 06:26:05;;;;;;;7.00;5.70;;;18.60;99.90;;;;;;5052912;28;20528;-65
2022/09/07 06:28:33;;;;;;;7.00;6.33;;;18.80;99.90;;;;;;5053972;28;20833;-65
2022/09/07 06:31:00;;;;;;;6.47;5.87;;;19.10;99.90;;;;;;5053719;28;20550;-65
2022/09/07 06:33:27;;;;;;;6.30;5.80;;;19.30;99.90;;;;;;5052025;28;20479;-65
2022/09/07 06:35:56;;;;;;;6.47;5.87;;;19.60;99.90;;;;;;5052195;28;20448;-65
2022/09/07 06:38:23;;;;;;;9.20;6.20;;;19.90;99.90;;;;;;5052437;28;20452;-65
2022/09/07 06:40:50;;;;;;;7.60;6.80;;;20.10;99.90;;;;;;5052424;28;20467;-64
2022/09/07 06:43:18;;;;;;;7.80;5.90;;;20.10;99.90;;;;;;5051780;28;20440;-64
2022/09/07 06:45:52;;;;;;;7.47;5.57;;;20.10;99.90;;;;;;5051906;28;20448;-65
2022/09/07 06:48:18;;;;;;;5.67;5.10;;;20.10;99.90;;;;;;5051790;28;21118;-65
2022/09/07 06:50:54;;;;;;;5.83;4.63;;;20.30;99.90;;;;;;5051621;28;20591;-64
2022/09/07 06:53:21;;;;;;;6.93;4.93;;;20.50;99.90;;;;;;5051483;28;20490;-65
2022/09/07 06:55:47;;;;;;;6.20;4.73;;;20.70;99.90;;;;;;5051839;28;20450;-65
2022/09/07 06:58:14;;;;;;;9.37;5.47;;;20.90;99.90;;;;;;5051686;28;20835;-64
2022/09/07 07:00:43;;;;;;;10.20;5.63;;;21.00;99.90;;;;;;5051504;28;20483;-65
2022/09/07 07:03:09;;;;;;;5.83;5.10;;;21.20;99.90;;;;;;5051158;28;20477;-65
2022/09/07 07:05:36;;;;;;;6.60;5.23;;;21.30;99.90;;;;;;5051780;28;20458;-65
2022/09/07 07:08:03;;;;;;;7.90;4.87;;;21.40;99.90;;;;;;5051517;28;20451;-65
2022/09/07 07:10:30;;;;;;;5.60;4.37;;;21.50;99.90;;;;;;5051430;28;20474;-65
2022/09/07 07:12:57;;;;;;;7.37;4.37;;;21.50;99.90;;;;;;5050925;28;20511;-65
2022/09/07 07:15:26;;;;;;;5.77;4.00;;;21.60;99.90;;;;;;5051276;28;20460;-63
2022/09/07 07:17:54;;;;;;;7.13;4.63;;;21.50;99.90;;;;;;5051052;28;20852;-63
2022/09/07 07:20:21;;;;;;;7.13;4.40;;;21.50;99.90;;;;;;5051260;28;20539;-63
2022/09/07 07:22:50;;;;;;;4.73;4.23;;;21.50;99.90;;;;;;5050782;28;20943;-63
2022/09/07 07:25:17;;;;;;;7.37;5.00;;;21.60;99.90;;;;;;5051024;28;20460;-63
2022/09/07 07:27:45;;;;;;;11.70;5.03;;;21.50;99.90;;;;;;5050988;28;20478;-63
2022/09/07 07:30:12;;;;;;;7.10;3.67;;;21.60;99.90;;;;;;5050492;28;20452;-63
2022/09/07 07:32:40;;;;;;;7.30;3.67;;;21.50;99.90;;;;;;5050786;28;20452;-63
2022/09/07 07:35:09;;;;;;;5.37;3.70;;;21.60;99.90;;;;;;5050770;28;21016;-63
2022/09/07 07:37:36;;;;;;;7.03;5.00;;;21.70;99.90;;;;;;5050886;28;20452;-63
2022/09/07 07:40:04;;;;;;;6.60;4.40;;;21.80;99.90;;;;;;5050616;28;20525;-63
2022/09/07 07:42:31;;;;;;;4.90;3.67;;;21.90;99.90;;;;;;5050319;28;20531;-63
2022/09/07 07:44:58;;;;;;;9.13;4.13;;;21.90;99.90;;;;;;5050555;28;20455;-63
2022/09/07 07:47:25;;;;;;;5.70;4.30;;;22.10;99.90;;;;;;5050612;28;20440;-63
2022/09/07 07:49:52;;;;;;;8.50;6.17;;;22.10;99.90;;;;;;5050582;28;20450;-63
2022/09/07 07:52:21;;;;;;;7.40;4.47;;;22.20;99.90;;;;;;5050333;28;21021;-64
2022/09/07 07:54:48;;;;;;;7.47;3.90;;;22.20;99.90;;;;;;5050471;28;20480;-64
2022/09/07 07:57:15;;;;;;;5.83;3.53;;;22.40;99.90;;;;;;5050440;28;20899;-64
2022/09/07 07:59:42;;;;;;;6.63;3.70;;;22.40;99.90;;;;;;5050626;28;21011;-64
2022/09/07 08:02:15;;;;;;;6.57;4.57;;;22.60;99.90;;;;;;5049368;28;20805;-64
2022/09/07 08:04:42;;;;;;;10.43;4.50;;;22.70;99.90;;;;;;5050205;28;20201;-64
2022/09/07 08:07:10;;;;;;;8.60;4.37;;;22.80;99.90;;;;;;5045207;28;20456;-65
2022/09/07 08:09:40;;;;;;;6.60;4.30;;;23.10;99.90;;;;;;5049701;28;20440;-65
2022/09/07 08:12:07;;;;;;;6.50;4.07;;;23.20;99.90;;;;;;5044349;28;20468;-65
2022/09/07 08:14:35;;;;;;;6.97;4.17;;;23.30;99.90;;;;;;5045576;28;20483;-64
2022/09/07 08:17:02;;;;;;;7.07;3.80;;;23.40;99.90;;;;;;5036086;28;20544;-65
2022/09/07 08:19:29;;;;;;;8.53;4.10;;;23.60;99.90;;;;;;5043295;28;20965;-65
2022/09/07 08:21:55;;;;;;;8.87;3.90;;;23.60;99.90;;;;;;5049160;28;20471;-65
2022/09/07 08:24:22;;;;;;;8.97;4.27;;;23.70;99.90;;;;;;5050059;28;20440;-65
2022/09/07 08:26:51;;;;;;;7.00;3.13;;;23.90;99.90;;;;;;5049852;28;20971;-65
2022/09/07 08:29:18;;;;;;;7.13;3.07;;;24.00;99.90;;;;;;5050213;28;20530;-65
2022/09/07 08:31:44;;;;;;;7.97;3.23;;;24.00;99.90;;;;;;5049608;28;20468;-65
2022/09/07 08:34:11;;;;;;;7.40;3.50;;;24.10;99.90;;;;;;5049865;28;20484;-66
2022/09/07 08:36:38;;;;;;;6.60;3.07;;;24.20;99.90;;;;;;5041211;28;20455;-65
2022/09/07 08:39:05;;;;;;;6.40;3.20;;;24.40;99.90;;;;;;5036688;28;20467;-64
2022/09/07 08:41:52;;;;;;;6.00;3.47;;;24.40;99.90;;;;;;5035793;28;20488;-66
2022/09/07 08:44:24;;;;;;;8.20;3.70;;;24.40;99.90;;;;;;5042708;28;20462;-64
2022/09/07 08:46:54;;;;;;;3.80;3.23;;;24.40;99.90;;;;;;5043573;28;20847;-64
2022/09/07 08:49:26;;;;;;;7.90;3.50;;;24.50;99.90;;;;;;5044390;28;20448;-64
2022/09/07 08:51:57;;;;;;;6.47;3.37;;;24.50;99.90;;;;;;5045127;28;20464;-64
2022/09/07 08:54:24;;;;;;;7.80;3.37;;;24.60;99.90;;;;;;5045098;28;20506;-64
2022/09/07 08:56:53;;;;;;;7.73;3.40;;;24.80;99.90;;;;;;5044999;28;20456;-64
2022/09/07 08:59:25;;;;;;;5.07;3.30;;;24.90;99.90;;;;;;5045675;28;20447;-65
2022/09/07 09:01:51;;;;;;;7.40;4.27;;;25.00;99.90;;;;;;5045115;28;20478;-64
2022/09/07 09:04:23;;;;;;;4.77;3.27;;;25.00;99.90;;;;;;5045727;28;20432;-64
2022/09/07 09:07:05;;;;;;;4.20;3.27;;;25.10;99.90;;;;;;5045875;28;20451;-64
2022/09/07 09:09:44;;;;;;;6.00;2.90;;;25.20;99.90;;;;;;5045676;28;20439;-64
2022/09/07 09:12:24;;;;;;;6.53;3.63;;;25.30;99.90;;;;;;5045053;28;21059;-64
2022/09/07 09:15:08;;;;;;;6.90;3.80;;;25.50;99.90;;;;;;5045843;28;21297;-64
2022/09/07 09:17:40;;;;;;;5.90;3.27;;;25.70;99.90;;;;;;5037902;28;20456;-64
2022/09/07 09:20:19;;;;;;;6.93;3.87;;;26.30;99.90;;;;;;5035198;28;20475;-65
2022/09/07 09:22:46;;;;;;;4.40;3.07;;;26.80;99.90;;;;;;5033164;28;20460;-64
2022/09/07 09:25:20;;;;;;;5.60;3.60;;;27.20;99.90;;;;;;5034660;28;20452;-65
2022/09/07 09:27:47;;;;;;;5.53;3.57;;;27.50;99.90;;;;;;5038198;28;20543;-65
2022/09/07 09:30:17;;;;;;;5.67;3.83;;;27.90;99.90;;;;;;5037360;28;20452;-64
2022/09/07 09:32:46;;;;;;;5.73;3.10;;;27.70;99.90;;;;;;5041833;28;20532;-64
2022/09/07 09:35:16;;;;;;;5.40;3.90;;;27.70;99.90;;;;;;5041710;28;20482;-64
2022/09/07 09:37:44;;;;;;;5.20;2.80;;;27.60;99.90;;;;;;5036606;28;20443;-65
2022/09/07 09:40:23;;;;;;;5.13;3.20;;;27.70;99.90;;;;;;5036867;28;20456;-65
2022/09/07 09:43:03;;;;;;;4.80;3.00;;;27.70;99.90;;;;;;5036860;28;20451;-64
2022/09/07 09:45:34;;;;;;;5.80;3.43;;;27.60;99.90;;;;;;5036002;28;20448;-65
2022/09/07 09:48:02;;;;;;;6.90;3.73;;;28.00;99.90;;;;;;5032386;28;20464;-66
2022/09/07 09:50:34;;;;;;;5.80;2.87;;;28.30;99.90;;;;;;5034622;28;20467;-65
2022/09/07 09:53:02;;;;;;;4.87;3.63;;;28.50;99.90;;;;;;5037273;28;20452;-65
2022/09/07 09:55:32;;;;;;;8.40;3.73;;;28.50;99.90;;;;;;5034853;28;20491;-65
2022/09/07 09:58:01;;;;;;;5.63;3.00;;;28.80;99.90;;;;;;5036769;28;20853;-65
2022/09/07 10:00:31;;;;;;;3.60;2.50;;;29.20;99.90;;;;;;5040771;28;20483;-65
2022/09/07 10:03:14;;;;;;;4.90;3.63;;;29.40;99.90;;;;;;5041076;28;20448;-65
2022/09/07 10:05:42;;;;;;;4.70;2.73;;;29.40;99.90;;;;;;5038979;28;20431;-65
2022/09/07 10:08:17;;;;;;;7.53;3.80;;;29.30;99.60;;;;;;5036618;28;20456;-65
2022/09/07 10:10:59;;;;;;;5.03;3.80;;;28.70;99.90;;;;;;5039614;28;20471;-65
2022/09/07 10:13:30;;;;;;;6.73;4.27;;;28.30;99.90;;;;;;5048754;28;20436;-65
2022/09/07 10:16:01;;;;;;;6.60;3.20;;;28.20;99.90;;;;;;5051453;28;20489;-65
2022/09/07 10:18:35;;;;;;;3.87;3.40;;;28.20;99.90;;;;;;5051847;28;20439;-65
2022/09/07 10:21:13;;;;;;;7.40;3.57;;;28.60;99.90;;;;;;5052043;28;20459;-66
2022/09/07 10:23:40;;;;;;;9.27;3.30;;;28.90;99.90;;;;;;5052091;28;20462;-64
2022/09/07 10:26:25;;;;;;;8.00;3.40;;;28.90;99.90;;;;;;5052064;28;20448;-65
2022/09/07 10:29:13;;;;;;;5.67;3.00;;;28.70;99.90;;;;;;5050410;28;20436;-65
2022/09/07 10:32:01;;;;;;;5.60;3.40;;;29.10;99.90;;;;;;5045841;28;20464;-65
2022/09/07 10:34:36;;;;;;;5.53;3.20;;;29.20;99.40;;;;;;5045652;28;20488;-65
2022/09/07 10:37:05;;;;;;;5.70;3.10;;;29.40;99.20;;;;;;5045925;28;20447;-65
2022/09/07 10:39:35;;;;;;;6.93;3.43;;;29.60;98.40;;;;;;5045174;28;20896;-65
2022/09/07 10:42:24;;;;;;;5.37;3.10;;;29.80;98.40;;;;;;5047528;28;20472;-70
2022/09/07 10:45:02;;;;;;;7.57;3.53;;;30.30;97.80;;;;;;5047055;28;20444;-64
2022/09/07 10:47:42;;;;;;;5.37;3.27;;;30.40;97.50;;;;;;5043889;28;20844;-64
2022/09/07 10:50:13;;;;;;;10.10;4.00;;;29.80;97.40;;;;;;5043054;28;21139;-63
2022/09/07 10:52:49;;;;;;;12.60;4.27;;;29.00;98.60;;;;;;5046919;28;20460;-64
2022/09/07 10:55:21;;;;;;;4.23;3.13;;;28.40;99.40;;;;;;5047332;28;21095;-64
2022/09/07 10:58:01;;;;;;;7.97;3.80;;;27.90;99.90;;;;;;5047351;28;20448;-64
2022/09/07 11:00:35;;;;;;;9.70;3.83;;;27.40;99.90;;;;;;5047308;28;20456;-64
2022/09/07 11:03:24;;;;;;;4.10;2.93;;;27.10;99.90;;;;;;5046677;28;20911;-64
2022/09/07 11:06:10;;;;;;;4.97;3.50;;;27.00;99.90;;;;;;5047428;28;20523;-64
2022/09/07 11:09:00;;;;;;;5.20;2.90;;;26.90;99.90;;;;;;5035061;28;20448;-64
2022/09/07 11:11:30;;;;;;;7.03;3.20;;;26.90;99.90;;;;;;5041592;28;20479;-66
2022/09/07 11:14:03;;;;;;;6.27;3.07;;;26.80;99.90;;;;;;5046375;28;20525;-66
2022/09/07 11:16:34;;;;;;;7.10;2.80;;;27.10;99.90;;;;;;5047351;28;20455;-64
2022/09/07 11:19:07;;;;;;;5.57;2.80;;;28.00;99.90;;;;;;5047393;28;20452;-64
2022/09/07 11:21:43;;;;;;;8.93;3.13;;;29.00;99.90;;;;;;5046929;28;20464;-65
2022/09/07 11:24:19;;;;;;;7.33;3.50;;;30.00;98.00;;;;;;5045983;28;21074;-65
2022/09/07 11:26:51;;;;;;;4.67;3.07;;;30.50;96.90;;;;;;5046280;28;20443;-64
2022/09/07 11:29:21;;;;;;;3.47;2.80;;;30.80;95.50;;;;;;5046585;28;21210;-65
2022/09/07 11:31:53;;;;;;;4.87;3.77;;;31.00;95.20;;;;;;5045156;28;20476;-65
2022/09/07 11:34:29;;;;;;;4.20;3.00;;;31.40;94.70;;;;;;5045697;28;20499;-65
2022/09/07 11:37:01;;;;;;;4.20;2.63;;;31.70;93.80;;;;;;5042882;28;20447;-65
2022/09/07 11:39:34;;;;;;;6.10;2.87;;;31.40;92.70;;;;;;5043775;28;20440;-65
2022/09/07 11:42:04;;;;;;;5.83;2.80;;;31.60;95.10;;;;;;5043234;28;20460;-65
2022/09/07 11:44:40;;;;;;;4.17;2.20;;;32.60;92.20;;;;;;5043673;28;20440;-65
2022/09/07 11:47:14;;;;;;;4.63;2.40;;;34.00;90.20;;;;;;5041888;28;20446;-65
2022/09/07 11:49:42;;;;;;;4.70;2.63;;;33.80;88.00;;;;;;5044897;28;20785;-65
2022/09/07 11:52:19;;;;;;;3.03;2.70;;;33.70;88.20;;;;;;5042852;28;20535;-65
2022/09/07 11:54:51;;;;;;;3.70;2.60;;;34.80;86.70;;;;;;5045378;28;20484;-65
2022/09/07 11:57:36;;;;;;;17.23;4.57;;;34.70;81.90;;;;;;5045694;28;20444;-65
2022/09/07 12:00:09;;;;;;;10.77;2.90;;;33.10;84.50;;;;;;5045725;28;20847;-65
2022/09/07 12:02:52;;;;;;;7.47;3.10;;;32.40;87.90;;;;;;5044959;28;20457;-65
2022/09/07 12:05:31;;;;;;;4.33;2.80;;;31.70;90.20;;;;;;5045693;28;20459;-65
2022/09/07 12:08:18;;;;;;;6.33;2.90;;;30.50;91.60;;;;;;5045567;28;20490;-65
2022/09/07 12:11:08;;;;;;;4.70;2.30;;;29.40;92.80;;;;;;5044656;28;21009;-65
2022/09/07 12:13:56;;;;;;;7.33;3.17;;;29.60;92.70;;;;;;5034738;28;20479;-65
2022/09/07 12:16:37;;;;;;;4.83;2.87;;;29.40;92.90;;;;;;5044483;28;20476;-66
2022/09/07 12:19:16;;;;;;;6.13;2.77;;;29.10;93.50;;;;;;5045537;28;20443;-65
2022/09/07 12:21:47;;;;;;;8.10;3.47;;;28.40;94.20;;;;;;5045110;28;21012;-65
2022/09/07 12:24:36;;;;;;;15.33;5.43;;;27.90;95.20;;;;;;5045731;28;20444;-65
2022/09/07 12:27:03;;;;;;;12.33;3.93;;;27.80;95.00;;;;;;5045826;28;20446;-65
2022/09/07 12:29:30;;;;;;;4.80;2.93;;;28.70;94.30;;;;;;5045324;28;21113;-65
2022/09/07 12:31:58;;;;;;;5.90;2.70;;;30.00;92.60;;;;;;5045068;28;20464;-65
2022/09/07 12:34:46;;;;;;;3.83;2.57;;;31.10;90.60;;;;;;5045012;28;20717;-65
2022/09/07 12:37:38;;;;;;;3.63;2.30;;;32.40;86.90;;;;;;5045449;28;20451;-65
2022/09/07 12:40:39;;;;;;;4.83;2.93;;;33.20;83.90;;;;;;5045499;28;20878;-65
2022/09/07 12:43:55;;;;;;;6.03;2.20;;;33.10;82.60;;;;;;5045255;28;20444;-65
2022/09/07 12:46:43;;;;;;;3.50;2.30;;;32.90;82.30;;;;;;5045138;28;20440;-65
2022/09/07 12:49:32;;;;;;;6.30;2.70;;;33.90;79.30;;;;;;5044095;28;20754;-65
2022/09/07 12:52:07;;;;;;;12.33;2.70;;;34.10;76.90;;;;;;5027543;28;20484;-65
2022/09/07 12:54:40;;;;;;;4.53;2.40;;;33.50;75.90;;;;;;5044509;28;20443;-65
2022/09/07 12:57:24;;;;;;;3.47;2.30;;;33.50;76.80;;;;;;5045212;28;20780;-65
2022/09/07 13:00:03;;;;;;;5.07;2.20;;;34.30;75.50;;;;;;5045651;28;20933;-65
2022/09/07 13:02:49;;;;;;;3.50;1.90;;;34.30;73.80;;;;;;5044743;28;20891;-66
2022/09/07 13:05:27;;;;;;;5.40;2.60;;;33.80;73.40;;;;;;5043045;28;20455;-65
2022/09/07 13:08:13;;;;;;;3.40;2.17;;;33.20;75.30;;;;;;5037105;28;20453;-66